createdAt,value
2023-02-01T00:02:05.472Z,36.13
2023-02-01T00:04:30.973Z,35.29
2023-02-01T00:07:07.034Z,35.97
2023-02-01T00:09:40.078Z,35.33
2023-02-01T00:12:19.340Z,35.38
2023-02-01T00:14:49.755Z,36.02
2023-02-01T00:17:17.874Z,35.61
2023-02-01T00:19:50.777Z,35.79
2023-02-01T00:22:23.218Z,35.52
2023-02-01T00:24:54.348Z,35.76
2023-02-01T00:27:36.095Z,35.79
2023-02-01T00:30:12.664Z,35.74
2023-02-01T00:32:47.121Z,36.51
2023-02-01T00:35:17.293Z,36.41
2023-02-01T00:37:46.971Z,36.11
2023-02-01T00:40:14.961Z,36.16
2023-02-01T00:42:42.172Z,36.10
2023-02-01T00:45:12.380Z,37.03
2023-02-01T00:47:47.385Z,36.86
2023-02-01T00:50:17.724Z,36.11
2023-02-01T00:52:45.023Z,36.33
2023-02-01T00:55:16.539Z,36.58
2023-02-01T00:57:43.904Z,36.41
2023-02-01T01:00:14.698Z,37.24
2023-02-01T01:02:45.571Z,36.84
2023-02-01T01:05:14.695Z,36.66
2023-02-01T01:08:15.812Z,37.16
2023-02-01T01:10:46.256Z,37.10
2023-02-01T01:13:18.674Z,37.12
2023-02-01T01:15:46.619Z,37.22
2023-02-01T01:18:13.946Z,36.76
2023-02-01T01:20:48.000Z,37.28
2023-02-01T01:23:16.825Z,36.93
2023-02-01T01:25:48.110Z,37.60
2023-02-01T01:28:17.227Z,37.49
2023-02-01T01:30:50.194Z,37.20
2023-02-01T01:33:21.568Z,37.44
2023-02-01T01:35:51.461Z,37.52
2023-02-01T01:38:21.810Z,37.36
2023-02-01T01:40:51.812Z,37.79
2023-02-01T01:43:24.788Z,38.05
2023-02-01T01:45:55.649Z,37.86
2023-02-01T01:48:33.955Z,38.03
2023-02-01T01:51:24.908Z,38.22
2023-02-01T01:54:21.285Z,39.20
2023-02-01T01:57:02.488Z,38.59
2023-02-01T01:59:32.804Z,38.16
2023-02-01T02:02:12.591Z,38.73
2023-02-01T02:04:43.152Z,38.30
2023-02-01T02:07:50.923Z,38.99
2023-02-01T02:10:21.428Z,38.44
2023-02-01T02:12:59.253Z,38.94
2023-02-01T02:15:37.759Z,38.17
2023-02-01T02:18:28.647Z,39.45
2023-02-01T02:21:25.893Z,39.52
2023-02-01T02:24:07.994Z,38.96
2023-02-01T02:26:41.308Z,39.03
2023-02-01T02:29:51.366Z,39.44
2023-02-01T02:36:09.015Z,38.89
2023-02-01T02:38:59.009Z,39.72
2023-02-01T02:42:08.236Z,39.31
2023-02-01T02:45:09.850Z,39.46
2023-02-01T02:47:56.972Z,39.52
2023-02-01T02:50:56.259Z,39.76
2023-02-01T02:53:54.841Z,39.21
2023-02-01T02:56:45.474Z,39.58
2023-02-01T02:59:41.584Z,39.16
2023-02-01T03:02:34.528Z,38.99
2023-02-01T03:05:19.754Z,39.09
2023-02-01T03:07:57.464Z,39.28
2023-02-01T03:10:28.921Z,39.27
2023-02-01T03:13:01.983Z,39.02
2023-02-01T03:16:00.153Z,39.75
2023-02-01T03:18:37.321Z,40.39
2023-02-01T03:21:10.924Z,39.80
2023-02-01T03:23:39.831Z,40.33
2023-02-01T03:26:21.960Z,40.13
2023-02-01T03:28:57.395Z,39.96
2023-02-01T03:31:33.101Z,38.83
2023-02-01T03:34:00.436Z,39.21
2023-02-01T03:36:35.066Z,38.78
2023-02-01T03:39:08.470Z,39.21
2023-02-01T03:42:04.838Z,39.27
2023-02-01T03:44:58.358Z,39.32
2023-02-01T03:47:36.882Z,38.85
2023-02-01T03:50:11.051Z,38.82
2023-02-01T03:52:55.367Z,38.95
2023-02-01T03:55:27.575Z,38.87
2023-02-01T03:58:04.598Z,40.07
2023-02-01T04:00:36.063Z,39.72
2023-02-01T04:03:10.475Z,40.23
2023-02-01T04:05:40.614Z,39.99
2023-02-01T04:08:09.585Z,39.94
2023-02-01T04:10:40.975Z,39.74
2023-02-01T04:13:12.016Z,39.47
2023-02-01T04:15:42.126Z,39.66
2023-02-01T04:18:09.613Z,39.37
2023-02-01T04:20:42.235Z,39.32
2023-02-01T04:23:09.524Z,38.82
2023-02-01T04:25:40.161Z,39.53
2023-02-01T04:28:17.768Z,39.80
2023-02-01T04:30:50.459Z,39.31
2023-02-01T04:33:19.700Z,39.37
2023-02-01T04:35:47.077Z,39.38
2023-02-01T04:38:21.733Z,39.49
2023-02-01T04:41:00.494Z,39.62
2023-02-01T04:43:28.792Z,39.23
2023-02-01T04:46:02.830Z,39.79
2023-02-01T04:48:30.185Z,39.10
2023-02-01T04:51:05.561Z,39.56
2023-02-01T04:53:33.458Z,39.78
2023-02-01T04:56:07.025Z,39.76
2023-02-01T04:58:34.809Z,40.27
2023-02-01T05:01:05.761Z,39.34
2023-02-01T05:03:38.825Z,39.50
2023-02-01T05:06:16.130Z,39.84
2023-02-01T05:08:51.836Z,39.52
2023-02-01T05:11:45.439Z,40.16
2023-02-01T05:14:17.074Z,40.39
2023-02-01T05:16:47.423Z,40.07
2023-02-01T05:19:14.911Z,40.30
2023-02-01T05:22:02.802Z,40.74
2023-02-01T05:24:30.141Z,40.56
2023-02-01T05:26:57.914Z,40.12
2023-02-01T05:29:27.708Z,40.72
2023-02-01T05:32:03.040Z,40.79
2023-02-01T05:34:41.789Z,41.05
2023-02-01T05:37:19.210Z,41.10
2023-02-01T05:42:40.890Z,40.94
2023-02-01T05:45:09.328Z,41.11
2023-02-01T05:47:40.605Z,41.67
2023-02-01T05:50:14.421Z,41.33
2023-02-01T05:52:53.890Z,41.35
2023-02-01T05:55:34.006Z,41.54
2023-02-01T05:58:01.756Z,41.22
2023-02-01T06:01:03.118Z,42.11
2023-02-01T06:03:30.865Z,41.52
2023-02-01T06:05:58.368Z,41.59
2023-02-01T06:08:27.050Z,41.86
2023-02-01T06:11:08.054Z,42.24
2023-02-01T06:13:39.963Z,42.97
2023-02-01T06:16:08.863Z,41.75
2023-02-01T06:19:01.043Z,42.79
2023-02-01T06:21:31.242Z,41.99
2023-02-01T06:26:49.512Z,42.16
2023-02-01T06:29:19.059Z,41.69
2023-02-01T06:31:49.318Z,42.00
2023-02-01T06:34:16.677Z,42.53
2023-02-01T06:36:52.057Z,42.15
2023-02-01T06:39:32.699Z,42.27
2023-02-01T06:42:00.510Z,42.66
2023-02-01T06:44:54.960Z,42.65
2023-02-01T06:47:22.486Z,42.67
2023-02-01T06:49:50.830Z,42.42
2023-02-01T06:52:18.240Z,42.33
2023-02-01T06:54:58.539Z,42.16
2023-02-01T06:57:46.227Z,42.74
2023-02-01T07:00:18.409Z,42.00
2023-02-01T07:02:47.668Z,42.18
2023-02-01T07:05:18.092Z,42.24
2023-02-01T07:07:54.688Z,42.36
2023-02-01T07:10:33.202Z,42.36
2023-02-01T07:13:01.749Z,42.06
2023-02-01T07:15:52.666Z,42.13
2023-02-01T07:18:42.954Z,42.69
2023-02-01T07:21:25.478Z,42.44
2023-02-01T07:24:14.916Z,42.10
2023-02-01T07:26:49.280Z,42.20
2023-02-01T07:29:25.207Z,41.98
2023-02-01T07:34:54.759Z,42.93
2023-02-01T07:37:30.084Z,42.28
2023-02-01T07:40:00.434Z,42.63
2023-02-01T07:42:53.520Z,43.26
2023-02-01T07:45:23.748Z,42.50
2023-02-01T07:47:56.017Z,42.40
2023-02-01T07:50:26.416Z,42.24
2023-02-01T07:52:55.794Z,42.52
2023-02-01T07:55:33.165Z,42.48
2023-02-01T07:58:02.428Z,42.89
2023-02-01T08:00:49.173Z,42.32
2023-02-01T08:03:21.270Z,42.39
2023-02-01T08:05:51.301Z,42.24
2023-02-01T08:11:28.008Z,42.56
2023-02-01T08:13:56.580Z,42.49
2023-02-01T08:16:29.688Z,42.31
2023-02-01T08:19:02.933Z,42.78
2023-02-01T08:21:39.109Z,42.71
2023-02-01T08:24:09.766Z,42.23
2023-02-01T08:26:40.124Z,42.03
2023-02-01T08:29:11.564Z,42.24
2023-02-01T08:31:44.835Z,42.36
2023-02-01T08:34:13.996Z,41.75
2023-02-01T08:39:29.552Z,41.99
2023-02-01T08:42:18.204Z,42.51
2023-02-01T08:44:45.708Z,41.90
2023-02-01T08:47:14.898Z,41.62
2023-02-01T08:50:16.743Z,40.91
2023-02-01T08:52:59.940Z,40.16
2023-02-01T08:55:31.340Z,39.59
2023-02-01T08:58:01.763Z,39.34
2023-02-01T09:00:28.980Z,38.59
2023-02-01T09:03:14.704Z,38.04
2023-02-01T09:05:54.063Z,37.63
2023-02-01T09:08:25.726Z,37.19
2023-02-01T09:11:11.506Z,36.68
2023-02-01T09:13:44.528Z,36.63
2023-02-01T09:16:29.177Z,36.26
2023-02-01T09:19:23.881Z,35.21
2023-02-01T09:21:50.696Z,34.45
2023-02-01T09:27:04.851Z,33.60
2023-02-01T09:29:37.524Z,33.09
2023-02-01T09:32:12.387Z,32.40
2023-02-01T09:34:50.607Z,32.01
2023-02-01T09:37:22.947Z,31.86
2023-02-01T09:40:03.571Z,31.76
2023-02-01T09:45:50.389Z,30.70
2023-02-01T09:48:33.836Z,30.53
2023-02-01T09:51:06.173Z,30.47
2023-02-01T09:53:42.291Z,30.38
2023-02-01T09:56:31.687Z,29.83
2023-02-01T09:59:41.346Z,28.90
2023-02-01T10:02:31.470Z,28.49
2023-02-01T10:05:02.333Z,29.11
2023-02-01T10:07:51.112Z,28.92
2023-02-01T10:10:51.000Z,28.15
2023-02-01T10:13:46.644Z,27.94
2023-02-01T10:17:13.332Z,27.79
2023-02-01T10:20:22.169Z,27.34
2023-02-01T10:26:22.686Z,27.07
2023-02-01T10:29:04.478Z,26.97
2023-02-01T10:31:43.061Z,26.88
2023-02-01T10:34:38.591Z,25.87
2023-02-01T10:37:27.669Z,25.78
2023-02-01T10:39:59.304Z,25.63
2023-02-01T10:42:32.935Z,25.18
2023-02-01T10:45:09.969Z,24.71
2023-02-01T10:48:06.443Z,25.10
2023-02-01T10:50:41.802Z,24.83
2023-02-01T10:53:39.440Z,24.18
2023-02-01T10:56:11.794Z,24.47
2023-02-01T10:58:49.435Z,23.90
2023-02-01T11:01:23.821Z,24.04
2023-02-01T11:04:28.733Z,24.16
2023-02-01T11:07:27.959Z,23.32
2023-02-01T11:10:09.169Z,24.25
2023-02-01T11:12:39.926Z,23.76
2023-02-01T11:15:15.856Z,23.43
2023-02-01T11:17:52.283Z,23.01
2023-02-01T11:20:41.253Z,22.48
2023-02-01T11:23:31.832Z,22.55
2023-02-01T11:26:13.311Z,21.90
2023-02-01T11:28:59.744Z,21.18
2023-02-01T11:31:41.688Z,21.28
2023-02-01T11:37:58.481Z,21.27
2023-02-01T11:40:47.863Z,20.53
2023-02-01T11:43:38.462Z,20.80
2023-02-01T11:46:27.896Z,19.96
2023-02-01T11:49:32.090Z,19.02
2023-02-01T11:52:36.849Z,18.37
2023-02-01T11:55:28.206Z,19.52
2023-02-01T11:58:38.072Z,18.48
2023-02-01T12:01:14.298Z,18.11
2023-02-01T12:04:16.049Z,17.78
2023-02-01T12:06:58.754Z,17.63
2023-02-01T12:10:21.610Z,17.28
2023-02-01T12:13:17.284Z,17.38
2023-02-01T12:15:59.645Z,17.14
2023-02-01T12:18:52.132Z,17.54
2023-02-01T12:21:51.642Z,16.68
2023-02-01T12:24:32.428Z,17.01
2023-02-01T12:27:28.964Z,17.98
2023-02-01T12:30:16.629Z,17.77
2023-02-01T12:33:19.512Z,17.05
2023-02-01T12:36:19.720Z,16.25
2023-02-01T12:39:12.277Z,17.45
2023-02-01T12:42:19.673Z,17.04
2023-02-01T12:45:19.816Z,16.35
2023-02-01T12:51:24.620Z,16.47
2023-02-01T12:54:03.999Z,17.26
2023-02-01T12:57:07.023Z,16.78
2023-02-01T13:00:06.686Z,16.09
2023-02-01T13:06:40.766Z,17.07
2023-02-01T13:09:51.131Z,16.69
2023-02-01T13:12:50.801Z,16.90
2023-02-01T13:15:34.726Z,17.51
2023-02-01T13:18:09.747Z,17.83
2023-02-01T13:20:48.276Z,17.81
2023-02-01T13:23:38.685Z,17.00
2023-02-01T13:26:09.926Z,18.00
2023-02-01T13:29:16.465Z,17.13
2023-02-01T13:32:02.051Z,16.81
2023-02-01T13:35:07.226Z,16.59
2023-02-01T13:41:40.255Z,15.13
2023-02-01T13:44:45.420Z,15.58
2023-02-01T13:47:54.678Z,15.50
2023-02-01T13:50:44.136Z,15.55
2023-02-01T13:56:49.775Z,15.13
2023-02-01T13:59:46.442Z,15.49
2023-02-01T14:02:48.505Z,15.86
2023-02-01T14:05:46.530Z,15.53
2023-02-01T14:08:42.276Z,16.01
2023-02-01T14:11:50.057Z,16.19
2023-02-01T14:14:17.236Z,16.62
2023-02-01T14:17:05.905Z,16.38
2023-02-01T14:19:39.161Z,19.55
2023-02-01T14:22:45.042Z,19.71
2023-02-01T14:25:24.421Z,20.61
2023-02-01T14:28:00.844Z,19.82
2023-02-01T14:30:36.331Z,21.32
2023-02-01T14:33:21.733Z,22.68
2023-02-01T14:36:27.292Z,25.32
2023-02-01T14:39:37.086Z,26.10
2023-02-01T14:43:23.402Z,26.65
2023-02-01T14:46:22.808Z,26.48
2023-02-01T14:49:02.279Z,26.72
2023-02-01T14:51:40.139Z,26.94
2023-02-01T14:54:15.221Z,27.27
2023-02-01T14:56:54.913Z,26.64
2023-02-01T14:59:26.731Z,26.26
2023-02-01T15:02:08.507Z,26.78
2023-02-01T15:04:54.637Z,27.32
2023-02-01T15:07:34.180Z,27.88
2023-02-01T15:17:17.729Z,29.78
2023-02-01T15:23:18.061Z,30.95
2023-02-01T15:32:11.027Z,33.57
2023-02-01T15:34:59.177Z,34.18
2023-02-01T15:41:36.381Z,35.12
2023-02-01T15:44:42.214Z,35.46
2023-02-01T15:47:42.419Z,35.61
2023-02-01T15:50:31.924Z,37.01
2023-02-01T15:53:59.090Z,36.70
2023-02-01T15:57:08.181Z,36.63
2023-02-01T16:00:22.597Z,35.53
2023-02-01T16:04:03.719Z,35.98
2023-02-01T16:07:44.034Z,35.21
2023-02-01T16:10:40.426Z,34.81
2023-02-01T16:13:39.587Z,34.54
2023-02-01T16:16:50.568Z,34.76
2023-02-01T16:20:01.690Z,34.31
2023-02-01T16:23:00.431Z,34.63
2023-02-01T16:25:46.333Z,34.76
2023-02-01T16:31:55.116Z,35.15
2023-02-01T16:34:59.381Z,35.75
2023-02-01T16:37:43.101Z,35.76
2023-02-01T16:40:54.092Z,35.87
2023-02-01T16:44:07.179Z,35.91
2023-02-01T16:47:13.264Z,37.99
2023-02-01T16:50:08.273Z,37.14
2023-02-01T16:53:15.799Z,37.25
2023-02-01T16:56:17.952Z,37.92
2023-02-01T16:58:58.617Z,38.62
2023-02-01T17:01:41.667Z,38.49
2023-02-01T17:04:21.980Z,37.69
2023-02-01T17:07:26.190Z,37.35
2023-02-01T17:13:54.765Z,38.72
2023-02-01T17:16:54.286Z,39.13
2023-02-01T17:22:41.686Z,39.36
2023-02-01T17:25:27.486Z,40.00
2023-02-01T17:28:24.971Z,40.16
2023-02-01T17:30:59.338Z,40.73
2023-02-01T17:33:36.639Z,40.80
2023-02-01T17:36:14.663Z,41.72
2023-02-01T17:41:40.166Z,42.01
2023-02-01T17:44:17.319Z,43.54
2023-02-01T17:47:01.557Z,41.43
2023-02-01T17:49:56.745Z,42.72
2023-02-01T17:52:32.102Z,41.89
2023-02-01T17:55:31.999Z,41.51
2023-02-01T17:58:10.267Z,42.52
2023-02-01T18:01:08.083Z,42.23
2023-02-01T18:03:48.501Z,41.99
2023-02-01T18:06:44.013Z,41.58
2023-02-01T18:09:31.105Z,41.46
2023-02-01T18:15:28.933Z,41.54
2023-02-01T18:18:39.196Z,42.17
2023-02-01T18:24:08.037Z,42.37
2023-02-01T18:26:44.233Z,42.85
2023-02-01T18:29:26.580Z,42.77
2023-02-01T18:32:15.859Z,42.50
2023-02-01T18:35:05.776Z,41.99
2023-02-01T18:41:30.570Z,42.36
2023-02-01T18:44:03.656Z,42.53
2023-02-01T18:46:33.374Z,42.31
2023-02-01T18:49:14.527Z,42.20
2023-02-01T18:54:58.776Z,42.04
2023-02-01T18:57:45.336Z,41.44
2023-02-01T19:00:27.406Z,40.67
2023-02-01T19:03:20.256Z,41.29
2023-02-01T19:06:18.742Z,41.19
2023-02-01T19:08:59.247Z,40.71
2023-02-01T19:11:51.381Z,41.06
2023-02-01T19:14:39.382Z,40.64
2023-02-01T19:17:10.203Z,40.15
2023-02-01T19:20:00.338Z,40.72
2023-02-01T19:22:43.090Z,40.66
2023-02-01T19:25:20.996Z,40.50
2023-02-01T19:28:00.667Z,40.01
2023-02-01T19:31:07.070Z,40.98
2023-02-01T19:33:57.293Z,40.39
2023-02-01T19:36:44.654Z,40.38
2023-02-01T19:39:30.173Z,40.63
2023-02-01T19:42:30.817Z,40.79
2023-02-01T19:45:16.716Z,40.62
2023-02-01T19:48:07.970Z,40.94
2023-02-01T19:50:49.105Z,40.64
2023-02-01T19:53:39.141Z,40.42
2023-02-01T19:56:28.365Z,40.49
2023-02-01T20:02:06.783Z,41.72
2023-02-01T20:04:36.948Z,40.69
2023-02-01T20:10:09.997Z,40.72
2023-02-01T20:12:49.992Z,40.83
2023-02-01T20:15:20.403Z,40.79
2023-02-01T20:17:58.272Z,40.66
2023-02-01T20:21:41.120Z,41.31
2023-02-01T20:27:13.001Z,40.56
2023-02-01T20:30:12.119Z,40.26
2023-02-01T20:35:57.236Z,41.13
2023-02-01T20:38:33.044Z,40.39
2023-02-01T20:41:22.502Z,40.98
2023-02-01T20:44:11.476Z,40.73
2023-02-01T20:46:56.133Z,40.64
2023-02-01T20:49:43.673Z,41.01
2023-02-01T20:52:39.310Z,40.88
2023-02-01T20:55:27.695Z,40.60
2023-02-01T20:58:11.146Z,40.70
2023-02-01T21:00:46.493Z,40.57
2023-02-01T21:03:32.341Z,40.48
2023-02-01T21:06:23.802Z,40.58
2023-02-01T21:08:59.655Z,40.40
2023-02-01T21:11:46.950Z,40.16
2023-02-01T21:14:37.827Z,40.25
2023-02-01T21:17:25.986Z,40.28
2023-02-01T21:23:02.194Z,40.05
2023-02-01T21:25:32.686Z,39.13
2023-02-01T21:28:20.133Z,39.27
2023-02-01T21:31:18.391Z,38.62
2023-02-01T21:34:03.979Z,38.16
2023-02-01T21:36:48.865Z,37.14
2023-02-01T21:39:39.439Z,37.08
2023-02-01T21:42:34.870Z,37.45
2023-02-01T21:45:15.911Z,37.19
2023-02-01T21:48:00.804Z,37.33
2023-02-01T21:50:30.908Z,36.91
2023-02-01T21:53:05.119Z,37.28
2023-02-01T21:55:49.695Z,36.79
2023-02-01T21:58:24.405Z,37.04
2023-02-01T22:01:01.119Z,37.12
2023-02-01T22:03:36.250Z,36.83
2023-02-01T22:06:07.145Z,36.68
2023-02-01T22:08:38.752Z,36.73
2023-02-01T22:11:09.008Z,36.68
2023-02-01T22:13:39.898Z,36.52
2023-02-01T22:16:07.418Z,36.83
2023-02-01T22:18:40.901Z,36.69
2023-02-01T22:21:08.437Z,36.93
2023-02-01T22:23:35.589Z,36.59
2023-02-01T22:26:06.752Z,36.23
2023-02-01T22:28:42.412Z,36.38
2023-02-01T22:31:21.921Z,36.08
2023-02-01T22:33:59.346Z,36.26
2023-02-01T22:36:36.485Z,36.17
2023-02-01T22:39:10.294Z,35.84
2023-02-01T22:41:48.333Z,35.96
2023-02-01T22:44:29.845Z,35.87
2023-02-01T22:47:02.833Z,36.41
2023-02-01T22:49:33.131Z,36.27
2023-02-01T22:52:06.372Z,36.49
2023-02-01T22:54:43.627Z,36.20
2023-02-01T22:57:20.787Z,36.73
2023-02-01T22:59:58.067Z,37.00
2023-02-01T23:02:37.409Z,36.77
2023-02-01T23:05:05.791Z,36.78
2023-02-01T23:07:38.583Z,37.00
2023-02-01T23:10:09.194Z,37.01
2023-02-01T23:12:36.498Z,36.97
2023-02-01T23:15:08.659Z,36.76
2023-02-01T23:17:40.042Z,36.85
2023-02-01T23:20:17.869Z,37.16
2023-02-01T23:22:49.848Z,36.70
2023-02-01T23:25:22.988Z,36.77
2023-02-01T23:27:54.067Z,37.10
2023-02-01T23:30:33.252Z,37.20
2023-02-01T23:33:09.148Z,37.18
2023-02-01T23:35:38.188Z,37.20
2023-02-01T23:38:10.873Z,37.20
2023-02-01T23:40:38.335Z,37.01
2023-02-01T23:46:08.617Z,37.25
2023-02-01T23:48:42.368Z,37.62
2023-02-01T23:51:15.481Z,37.57
2023-02-01T23:53:52.279Z,37.80
2023-02-01T23:56:39.571Z,37.71
2023-02-01T23:59:29.884Z,38.01
